createdAt,value
2018-11-11T00:02:09.700Z,19.55
2018-11-11T00:04:38.119Z,19.52
2018-11-11T00:07:06.875Z,18.82
2018-11-11T00:09:35.392Z,19.12
2018-11-11T00:12:03.870Z,16.80
2018-11-11T00:14:32.649Z,17.82
2018-11-11T00:17:01.667Z,18.82
2018-11-11T00:19:30.818Z,17.52
2018-11-11T00:21:59.319Z,18.80
2018-11-11T00:24:28.029Z,17.27
2018-11-11T00:26:56.465Z,16.17
2018-11-11T00:29:24.994Z,15.90
2018-11-11T00:31:53.463Z,17.37
2018-11-11T00:34:22.385Z,15.45
2018-11-11T00:36:51.481Z,17.42
2018-11-11T00:39:20.193Z,17.60
2018-11-11T00:41:48.648Z,16.00
2018-11-11T00:44:17.208Z,17.30
2018-11-11T00:46:45.724Z,19.10
2018-11-11T00:49:14.301Z,17.15
2018-11-11T00:51:42.875Z,16.82
2018-11-11T00:54:11.432Z,17.52
2018-11-11T00:56:40.000Z,15.95
2018-11-11T00:59:08.498Z,15.50
2018-11-11T01:01:37.165Z,15.88
2018-11-11T01:04:06.517Z,17.50
2018-11-11T01:06:34.966Z,17.85
2018-11-11T01:09:03.581Z,15.30
2018-11-11T01:11:32.148Z,15.23
2018-11-11T01:14:00.548Z,16.00
2018-11-11T01:16:28.998Z,15.18
2018-11-11T01:18:57.433Z,15.28
2018-11-11T01:21:25.956Z,16.12
2018-11-11T01:23:54.510Z,14.65
2018-11-11T01:26:23.644Z,18.23
2018-11-11T01:28:52.096Z,16.52
2018-11-11T01:31:20.616Z,16.97
2018-11-11T01:33:49.569Z,17.17
2018-11-11T01:36:18.105Z,16.97
2018-11-11T01:38:46.572Z,16.17
2018-11-11T01:41:15.393Z,15.25
2018-11-11T01:43:44.794Z,15.53
2018-11-11T01:46:13.202Z,16.12
2018-11-11T01:48:41.713Z,17.95
2018-11-11T01:51:10.289Z,13.45
2018-11-11T01:53:38.799Z,14.60
2018-11-11T01:56:07.330Z,13.18
2018-11-11T01:58:35.778Z,12.55
2018-11-11T02:01:04.820Z,13.68
2018-11-11T02:03:33.856Z,12.63
2018-11-11T02:06:02.264Z,13.80
2018-11-11T02:08:30.780Z,12.50
2018-11-11T02:10:59.281Z,13.08
2018-11-11T02:13:27.696Z,13.48
2018-11-11T02:15:56.093Z,13.18
2018-11-11T02:18:24.568Z,11.40
2018-11-11T02:20:53.017Z,12.68
2018-11-11T02:23:21.449Z,12.53
2018-11-11T02:25:49.846Z,19.70
2018-11-11T02:28:18.248Z,18.80
2018-11-11T02:30:46.648Z,10.75
2018-11-11T02:33:15.058Z,9.10
2018-11-11T02:35:43.496Z,9.20
2018-11-11T02:38:11.925Z,8.70
2018-11-11T02:40:40.348Z,11.03
2018-11-11T02:43:08.833Z,8.85
2018-11-11T02:45:37.226Z,9.03
2018-11-11T02:48:06.015Z,8.83
2018-11-11T02:50:34.509Z,8.03
2018-11-11T02:53:02.945Z,9.28
2018-11-11T02:55:31.438Z,9.40
2018-11-11T02:57:59.869Z,9.10
2018-11-11T03:00:28.258Z,10.00
2018-11-11T03:02:56.652Z,10.60
2018-11-11T03:05:25.029Z,9.98
2018-11-11T03:07:53.525Z,9.53
2018-11-11T03:10:22.021Z,9.33
2018-11-11T03:12:51.041Z,11.12
2018-11-11T03:15:19.820Z,9.28
2018-11-11T03:17:48.380Z,11.35
2018-11-11T03:20:17.412Z,11.25
2018-11-11T03:22:45.826Z,12.00
2018-11-11T03:25:15.286Z,10.03
2018-11-11T03:27:43.968Z,12.07
2018-11-11T03:30:14.724Z,10.15
2018-11-11T03:32:43.286Z,12.23
2018-11-11T03:35:12.786Z,11.28
2018-11-11T03:37:41.708Z,12.82
2018-11-11T03:40:12.408Z,12.10
2018-11-11T03:42:42.046Z,14.18
2018-11-11T03:45:12.465Z,16.55
2018-11-11T03:47:41.673Z,13.43
2018-11-11T03:50:10.663Z,13.38
2018-11-11T03:52:39.540Z,13.83
2018-11-11T03:55:08.653Z,12.45
2018-11-11T03:57:37.313Z,14.47
2018-11-11T04:00:07.265Z,11.43
2018-11-11T04:02:35.701Z,12.82
2018-11-11T04:05:04.286Z,11.55
2018-11-11T04:07:32.755Z,11.20
2018-11-11T04:10:01.151Z,11.25
2018-11-11T04:12:29.604Z,11.28
2018-11-11T04:14:58.085Z,10.38
2018-11-11T04:17:26.482Z,9.50
2018-11-11T04:19:54.862Z,11.73
2018-11-11T04:22:23.348Z,9.30
2018-11-11T04:24:52.766Z,9.68
2018-11-11T04:27:21.473Z,9.13
2018-11-11T04:29:49.943Z,9.05
2018-11-11T04:32:18.520Z,9.03
2018-11-11T04:34:46.932Z,8.78
2018-11-11T04:37:15.451Z,9.18
2018-11-11T04:39:43.868Z,9.03
2018-11-11T04:42:12.318Z,7.25
2018-11-11T04:44:40.724Z,7.87
2018-11-11T04:47:09.132Z,7.97
2018-11-11T04:49:37.639Z,8.63
2018-11-11T04:52:06.248Z,7.62
2018-11-11T04:54:35.252Z,8.05
2018-11-11T04:57:03.665Z,9.73
2018-11-11T04:59:32.055Z,10.38
2018-11-11T05:02:01.102Z,8.23
2018-11-11T05:04:29.521Z,10.05
2018-11-11T05:06:57.985Z,7.28
2018-11-11T05:09:26.385Z,6.92
2018-11-11T05:11:54.773Z,7.62
2018-11-11T05:14:23.169Z,8.58
2018-11-11T05:16:51.560Z,5.45
2018-11-11T05:19:20.053Z,7.50
2018-11-11T05:21:48.510Z,7.28
2018-11-11T05:24:16.840Z,7.58
2018-11-11T05:26:45.328Z,7.33
2018-11-11T05:29:13.815Z,7.78
2018-11-11T05:31:42.320Z,7.92
2018-11-11T05:34:10.731Z,8.25
2018-11-11T05:36:39.229Z,11.85
2018-11-11T05:39:10.600Z,10.63
2018-11-11T05:41:39.283Z,11.20
2018-11-11T05:44:08.805Z,12.13
2018-11-11T05:46:37.292Z,9.63
2018-11-11T05:49:05.950Z,10.13
2018-11-11T05:51:34.453Z,11.48
2018-11-11T05:54:03.020Z,11.33
2018-11-11T05:56:31.487Z,11.07
2018-11-11T05:58:59.952Z,10.43
2018-11-11T06:01:28.368Z,11.55
2018-11-11T06:03:56.840Z,10.48
2018-11-11T06:06:25.447Z,14.03
2018-11-11T06:08:53.846Z,11.55
2018-11-11T06:11:22.257Z,12.55
2018-11-11T06:13:50.676Z,11.85
2018-11-11T06:16:19.224Z,12.47
2018-11-11T06:18:47.625Z,10.88
2018-11-11T06:21:16.146Z,12.00
2018-11-11T06:23:44.568Z,11.15
2018-11-11T06:26:13.432Z,11.43
2018-11-11T06:28:42.016Z,11.48
2018-11-11T06:31:10.573Z,10.93
2018-11-11T06:33:39.128Z,11.03
2018-11-11T06:36:07.532Z,10.15
2018-11-11T06:38:35.983Z,11.50
2018-11-11T06:41:04.866Z,9.25
2018-11-11T06:43:33.253Z,9.85
2018-11-11T06:46:01.700Z,9.75
2018-11-11T06:48:30.110Z,11.70
2018-11-11T06:50:59.496Z,10.10
2018-11-11T06:53:28.012Z,10.05
2018-11-11T06:55:56.400Z,11.35
2018-11-11T06:58:24.768Z,10.98
2018-11-11T07:00:53.195Z,10.48
2018-11-11T07:03:33.045Z,11.35
2018-11-11T07:06:01.589Z,11.08
2018-11-11T07:08:29.979Z,12.98
2018-11-11T07:10:58.349Z,13.10
2018-11-11T07:13:26.828Z,16.25
2018-11-11T07:15:55.309Z,12.68
2018-11-11T07:18:23.717Z,13.43
2018-11-11T07:20:52.168Z,12.95
2018-11-11T07:23:20.653Z,13.45
2018-11-11T07:25:49.189Z,13.68
2018-11-11T07:28:17.796Z,13.98
2018-11-11T07:30:46.314Z,14.38
2018-11-11T07:33:14.816Z,13.50
2018-11-11T07:35:43.217Z,13.58
2018-11-11T07:38:11.607Z,11.83
2018-11-11T07:40:40.012Z,11.83
2018-11-11T07:43:08.496Z,13.65
2018-11-11T07:45:41.285Z,12.05
2018-11-11T07:48:09.746Z,11.15
2018-11-11T07:50:38.139Z,12.25
2018-11-11T07:53:06.633Z,10.38
2018-11-11T07:55:35.141Z,11.43
2018-11-11T07:58:03.580Z,9.45
2018-11-11T08:00:32.133Z,9.33
2018-11-11T08:03:00.550Z,12.25
2018-11-11T08:05:28.924Z,8.78
2018-11-11T08:07:57.484Z,8.10
2018-11-11T08:10:37.188Z,8.05
2018-11-11T08:13:05.591Z,9.38
2018-11-11T08:15:33.961Z,10.38
2018-11-11T08:18:02.484Z,8.40
2018-11-11T08:20:31.460Z,8.20
2018-11-11T08:22:59.860Z,8.48
2018-11-11T08:25:28.379Z,8.00
2018-11-11T08:27:56.887Z,7.83
2018-11-11T08:30:25.401Z,6.90
2018-11-11T08:32:53.801Z,6.00
2018-11-11T08:35:22.193Z,6.45
2018-11-11T08:37:50.775Z,8.28
2018-11-11T08:40:19.204Z,6.17
2018-11-11T08:42:47.589Z,6.70
2018-11-11T08:45:16.026Z,7.60
2018-11-11T08:47:45.476Z,5.20
2018-11-11T08:50:14.529Z,8.10
2018-11-11T08:52:43.101Z,5.97
2018-11-11T08:55:11.653Z,9.85
2018-11-11T08:57:40.754Z,7.75
2018-11-11T09:00:11.973Z,7.08
2018-11-11T09:02:40.914Z,7.75
2018-11-11T09:05:09.432Z,7.67
2018-11-11T09:07:38.607Z,7.42
2018-11-11T09:10:08.637Z,8.38
2018-11-11T09:12:37.059Z,7.95
2018-11-11T09:15:07.228Z,10.15
2018-11-11T09:17:35.630Z,7.28
2018-11-11T09:20:04.348Z,10.03
2018-11-11T09:22:32.736Z,7.03
2018-11-11T09:25:01.133Z,8.48
2018-11-11T09:27:29.575Z,8.73
2018-11-11T09:29:58.097Z,6.50
2018-11-11T09:32:26.642Z,7.20
2018-11-11T09:34:55.191Z,6.00
2018-11-11T09:37:24.261Z,5.97
2018-11-11T09:39:52.774Z,5.42
2018-11-11T09:42:21.257Z,5.55
2018-11-11T09:44:50.274Z,5.87
2018-11-11T09:47:18.665Z,6.67
2018-11-11T09:49:47.185Z,4.87
2018-11-11T09:52:15.576Z,5.45
2018-11-11T09:54:43.989Z,6.45
2018-11-11T09:57:12.409Z,5.70
2018-11-11T09:59:40.847Z,6.85
2018-11-11T10:02:09.317Z,6.10
2018-11-11T10:04:46.559Z,5.70
2018-11-11T10:08:19.257Z,5.75
2018-11-11T10:11:54.688Z,6.58
2018-11-11T10:14:30.637Z,6.33
2018-11-11T10:17:06.931Z,5.40
2018-11-11T10:19:45.970Z,5.33
2018-11-11T10:23:18.656Z,6.10
2018-11-11T10:25:55.179Z,4.17
2018-11-11T10:28:35.854Z,4.65
2018-11-11T10:31:09.139Z,4.85
2018-11-11T10:33:42.682Z,5.17
2018-11-11T10:36:18.258Z,4.45
2018-11-11T10:39:04.457Z,4.95
2018-11-11T10:42:37.460Z,5.05
2018-11-11T10:45:11.497Z,6.05
2018-11-11T10:47:55.667Z,4.70
2018-11-11T10:50:28.313Z,5.95
2018-11-11T10:52:56.735Z,6.20
2018-11-11T10:55:26.229Z,5.03
2018-11-11T10:57:54.625Z,3.98
2018-11-11T11:00:28.893Z,5.25
2018-11-11T11:02:58.762Z,5.83
2018-11-11T11:05:27.297Z,4.85
2018-11-11T11:07:56.129Z,4.20
2018-11-11T11:10:24.588Z,4.15
2018-11-11T11:12:53.002Z,5.10
2018-11-11T11:15:21.474Z,3.75
2018-11-11T11:17:49.858Z,3.50
2018-11-11T11:20:18.568Z,3.52
2018-11-11T11:22:47.261Z,2.90
2018-11-11T11:25:15.718Z,3.22
2018-11-11T11:27:44.145Z,2.75
2018-11-11T11:30:13.607Z,2.58
2018-11-11T11:32:42.068Z,3.35
2018-11-11T11:35:10.840Z,2.12
2018-11-11T11:37:39.976Z,2.20
2018-11-11T11:40:09.493Z,2.45
2018-11-11T11:42:38.586Z,2.30
2018-11-11T11:45:08.567Z,2.90
2018-11-11T11:47:37.104Z,3.02
2018-11-11T11:50:07.254Z,2.12
2018-11-11T11:52:35.598Z,2.60
2018-11-11T11:55:05.332Z,2.40
2018-11-11T11:57:33.832Z,2.58
2018-11-11T12:00:02.360Z,1.62
2018-11-11T12:02:30.756Z,4.00
2018-11-11T12:04:59.253Z,2.65
2018-11-11T12:07:27.685Z,1.60
2018-11-11T12:09:56.143Z,2.55
2018-11-11T12:12:24.651Z,1.60
2018-11-11T12:14:53.098Z,2.12
2018-11-11T12:17:21.599Z,1.77
2018-11-11T12:19:50.061Z,1.37
2018-11-11T12:22:18.573Z,1.57
2018-11-11T12:24:46.986Z,2.08
2018-11-11T12:27:15.407Z,3.22
2018-11-11T12:29:44.025Z,1.45
2018-11-11T12:32:12.493Z,1.80
2018-11-11T12:34:41.045Z,3.37
2018-11-11T12:37:09.667Z,1.27
2018-11-11T12:39:38.199Z,2.98
2018-11-11T12:42:06.631Z,1.85
2018-11-11T12:44:35.204Z,2.35
2018-11-11T12:47:03.697Z,1.25
2018-11-11T12:49:32.421Z,1.30
2018-11-11T12:52:00.972Z,1.42
2018-11-11T12:54:29.443Z,2.98
2018-11-11T12:56:57.912Z,5.28
2018-11-11T12:59:26.337Z,3.75
2018-11-11T13:01:54.752Z,1.40
2018-11-11T13:04:23.164Z,2.02
2018-11-11T13:06:51.691Z,1.40
2018-11-11T13:09:20.282Z,2.95
2018-11-11T13:11:48.869Z,1.87
2018-11-11T13:14:17.715Z,3.15
2018-11-11T13:16:46.221Z,2.90
2018-11-11T13:19:14.757Z,2.00
2018-11-11T13:21:43.190Z,3.08
2018-11-11T13:24:11.602Z,2.90
2018-11-11T13:26:40.154Z,1.52
2018-11-11T13:29:08.705Z,1.10
2018-11-11T13:31:37.666Z,2.92
2018-11-11T13:34:06.475Z,2.80
2018-11-11T13:36:35.043Z,1.40
2018-11-11T13:39:04.586Z,2.27
2018-11-11T13:41:33.746Z,1.42
2018-11-11T13:44:02.186Z,1.72
2018-11-11T13:46:30.723Z,3.65
2018-11-11T13:48:59.266Z,2.17
2018-11-11T13:51:27.714Z,1.65
2018-11-11T13:53:56.321Z,1.67
2018-11-11T13:56:24.835Z,2.80
2018-11-11T13:58:53.325Z,3.05
2018-11-11T14:01:21.840Z,1.70
2018-11-11T14:03:50.382Z,2.83
2018-11-11T14:06:18.859Z,5.20
2018-11-11T14:08:47.492Z,3.02
2018-11-11T14:11:16.093Z,5.08
2018-11-11T14:13:44.418Z,2.45
2018-11-11T14:16:12.973Z,2.10
2018-11-11T14:18:41.516Z,1.47
2018-11-11T14:21:10.002Z,2.30
2018-11-11T14:23:39.033Z,3.12
2018-11-11T14:26:07.537Z,2.22
2018-11-11T14:28:35.952Z,2.75
2018-11-11T14:31:04.803Z,1.80
2018-11-11T14:33:34.033Z,4.45
2018-11-11T14:36:02.536Z,4.25
2018-11-11T14:38:31.079Z,4.80
2018-11-11T14:40:59.477Z,3.02
2018-11-11T14:43:27.939Z,4.12
2018-11-11T14:45:56.472Z,3.92
2018-11-11T14:48:24.958Z,3.27
2018-11-11T14:50:53.525Z,2.75
2018-11-11T14:53:21.968Z,2.10
2018-11-11T14:55:50.590Z,5.25
2018-11-11T14:58:19.010Z,3.67
2018-11-11T15:00:47.424Z,2.47
2018-11-11T15:03:17.687Z,4.75
2018-11-11T15:05:47.092Z,5.90
2018-11-11T15:08:15.614Z,3.90
2018-11-11T15:10:44.681Z,3.92
2018-11-11T15:13:14.267Z,4.92
2018-11-11T15:15:42.619Z,3.00
2018-11-11T15:18:11.057Z,3.85
2018-11-11T15:20:40.120Z,3.42
2018-11-11T15:23:09.151Z,3.08
2018-11-11T15:25:37.724Z,4.40
2018-11-11T15:28:06.901Z,3.60
2018-11-11T15:30:36.506Z,4.10
2018-11-11T15:33:05.439Z,3.83
2018-11-11T15:35:33.948Z,4.85
2018-11-11T15:38:02.467Z,2.47
2018-11-11T15:40:34.113Z,6.87
2018-11-11T15:43:03.342Z,4.75
2018-11-11T15:45:33.581Z,2.95
2018-11-11T15:48:02.326Z,4.30
2018-11-11T15:50:32.052Z,5.35
2018-11-11T15:53:01.953Z,4.50
2018-11-11T15:55:32.617Z,5.45
2018-11-11T15:58:01.217Z,5.20
2018-11-11T16:00:31.219Z,5.22
2018-11-11T16:02:59.693Z,5.28
2018-11-11T16:05:28.759Z,3.87
2018-11-11T16:07:58.972Z,3.92
2018-11-11T16:10:29.359Z,5.15
2018-11-11T16:12:57.980Z,3.30
2018-11-11T16:15:29.109Z,2.90
2018-11-11T16:17:59.261Z,4.87
2018-11-11T16:20:28.673Z,6.00
2018-11-11T16:22:58.091Z,5.67
2018-11-11T16:25:26.661Z,9.65
2018-11-11T16:27:55.215Z,4.58
2018-11-11T16:30:25.150Z,4.15
2018-11-11T16:32:54.701Z,3.70
2018-11-11T16:35:25.333Z,4.17
2018-11-11T16:37:53.807Z,6.03
2018-11-11T16:40:26.884Z,3.80
2018-11-11T16:42:55.645Z,4.97
2018-11-11T16:45:25.995Z,4.70
2018-11-11T16:47:54.592Z,3.58
2018-11-11T16:50:25.537Z,6.83
2018-11-11T16:52:54.934Z,3.77
2018-11-11T16:55:24.831Z,2.80
2018-11-11T16:57:53.433Z,3.60
2018-11-11T17:00:24.045Z,4.10
2018-11-11T17:02:53.060Z,2.98
2018-11-11T17:05:22.828Z,3.40
2018-11-11T17:07:51.671Z,3.77
2018-11-11T17:10:25.021Z,2.42
2018-11-11T17:12:54.674Z,4.12
2018-11-11T17:15:24.768Z,3.50
2018-11-11T17:17:53.343Z,3.27
2018-11-11T17:20:23.054Z,2.52
2018-11-11T17:22:52.502Z,4.60
2018-11-11T17:25:22.192Z,3.65
2018-11-11T17:27:50.752Z,3.72
2018-11-11T17:30:21.541Z,4.22
2018-11-11T17:32:50.865Z,3.77
2018-11-11T17:35:20.017Z,3.27
2018-11-11T17:37:48.688Z,2.60
2018-11-11T17:40:22.936Z,4.00
2018-11-11T17:42:52.908Z,3.12
2018-11-11T17:45:21.632Z,5.95
2018-11-11T17:47:50.808Z,2.70
2018-11-11T17:50:20.927Z,3.70
2018-11-11T17:52:49.484Z,3.70
2018-11-11T17:55:19.263Z,5.87
2018-11-11T17:57:47.803Z,3.77
2018-11-11T18:00:17.846Z,3.35
2018-11-11T18:02:46.527Z,4.15
2018-11-11T18:05:16.434Z,5.22
2018-11-11T18:07:45.058Z,3.22
2018-11-11T18:10:15.725Z,4.35
2018-11-11T18:12:44.543Z,3.67
2018-11-11T18:15:20.369Z,7.03
2018-11-11T18:17:48.942Z,4.67
2018-11-11T18:20:22.200Z,4.62
2018-11-11T18:22:51.876Z,7.00
2018-11-11T18:25:20.493Z,3.98
2018-11-11T18:27:49.050Z,4.37
2018-11-11T18:30:20.296Z,4.22
2018-11-11T18:32:49.050Z,5.97
2018-11-11T18:35:18.378Z,4.42
2018-11-11T18:37:47.652Z,3.92
2018-11-11T18:40:17.677Z,3.33
2018-11-11T18:42:46.053Z,4.33
2018-11-11T18:45:17.837Z,7.33
2018-11-11T18:47:47.137Z,5.03
2018-11-11T18:50:18.122Z,4.33
2018-11-11T18:52:46.702Z,5.97
2018-11-11T18:55:15.275Z,3.52
2018-11-11T18:57:44.227Z,4.30
2018-11-11T19:00:15.329Z,3.72
2018-11-11T19:02:45.032Z,4.60
2018-11-11T19:05:14.677Z,4.97
2018-11-11T19:07:43.399Z,6.62
2018-11-11T19:10:14.798Z,4.28
2018-11-11T19:12:44.327Z,4.97
2018-11-11T19:15:13.959Z,6.05
2018-11-11T19:17:43.433Z,5.70
2018-11-11T19:20:13.897Z,4.47
2018-11-11T19:22:42.446Z,4.35
2018-11-11T19:25:13.118Z,6.42
2018-11-11T19:27:42.670Z,3.92
2018-11-11T19:30:12.479Z,4.75
2018-11-11T19:32:42.001Z,4.62
2018-11-11T19:35:11.629Z,4.50
2018-11-11T19:37:40.137Z,4.70
2018-11-11T19:40:10.666Z,6.08
2018-11-11T19:42:39.347Z,4.75
2018-11-11T19:45:10.165Z,6.60
2018-11-11T19:47:39.266Z,5.17
2018-11-11T19:50:09.369Z,4.60
2018-11-11T19:52:38.284Z,4.08
2018-11-11T19:55:08.097Z,8.85
2018-11-11T19:57:36.508Z,4.75
2018-11-11T20:00:06.569Z,5.92
2018-11-11T20:02:35.104Z,4.30
2018-11-11T20:05:04.120Z,4.53
2018-11-11T20:07:32.634Z,4.62
2018-11-11T20:10:01.349Z,3.80
2018-11-11T20:12:29.886Z,5.78
2018-11-11T20:14:58.366Z,3.47
2018-11-11T20:17:26.889Z,5.87
2018-11-11T20:19:55.328Z,3.62
2018-11-11T20:22:23.873Z,3.83
2018-11-11T20:24:52.289Z,2.45
2018-11-11T20:27:20.743Z,4.92
2018-11-11T20:29:49.184Z,3.08
2018-11-11T20:32:17.647Z,4.33
2018-11-11T20:34:46.128Z,15.10
2018-11-11T20:37:14.669Z,5.67
2018-11-11T20:39:43.121Z,5.87
2018-11-11T20:42:11.556Z,2.40
2018-11-11T20:44:40.075Z,4.90
2018-11-11T20:47:08.675Z,4.10
2018-11-11T20:49:37.284Z,3.33
2018-11-11T20:52:06.102Z,2.35
2018-11-11T20:54:34.614Z,3.15
2018-11-11T20:57:03.049Z,2.45
2018-11-11T20:59:31.679Z,2.80
2018-11-11T21:02:00.123Z,2.58
2018-11-11T21:04:28.733Z,2.22
2018-11-11T21:06:57.254Z,2.08
2018-11-11T21:09:25.781Z,2.00
2018-11-11T21:11:54.276Z,3.12
2018-11-11T21:14:22.848Z,3.52
2018-11-11T21:16:51.257Z,2.22
2018-11-11T21:19:19.861Z,2.62
2018-11-11T21:21:48.436Z,2.70
2018-11-11T21:24:17.489Z,2.67
2018-11-11T21:26:46.496Z,1.52
2018-11-11T21:29:15.001Z,2.77
2018-11-11T21:31:43.472Z,4.33
2018-11-11T21:34:11.881Z,2.05
2018-11-11T21:36:40.805Z,2.52
2018-11-11T21:39:11.183Z,5.17
2018-11-11T21:41:39.970Z,0.98
2018-11-11T21:44:08.426Z,1.67
2018-11-11T21:46:37.860Z,3.72
2018-11-11T21:49:06.826Z,1.92
2018-11-11T21:51:35.316Z,2.92
2018-11-11T21:54:03.785Z,2.42
2018-11-11T21:56:32.282Z,1.20
2018-11-11T21:59:00.873Z,2.22
2018-11-11T22:01:29.345Z,2.02
2018-11-11T22:03:57.762Z,2.17
2018-11-11T22:06:26.264Z,2.25
2018-11-11T22:08:55.544Z,1.42
2018-11-11T22:11:24.018Z,1.60
2018-11-11T22:13:53.001Z,1.92
2018-11-11T22:16:21.542Z,1.05
2018-11-11T22:18:49.932Z,2.17
2018-11-11T22:21:18.472Z,1.35
2018-11-11T22:23:46.985Z,0.62
2018-11-11T22:26:15.492Z,1.62
2018-11-11T22:28:43.893Z,2.58
2018-11-11T22:31:12.561Z,0.70
2018-11-11T22:33:41.037Z,0.85
2018-11-11T22:36:09.541Z,1.37
2018-11-11T22:38:37.997Z,2.10
2018-11-11T22:41:06.557Z,1.98
2018-11-11T22:43:35.053Z,1.20
2018-11-11T22:46:03.560Z,0.75
2018-11-11T22:48:32.021Z,1.50
2018-11-11T22:51:00.585Z,1.30
2018-11-11T22:53:29.001Z,2.00
2018-11-11T22:55:57.408Z,1.00
2018-11-11T22:58:25.940Z,0.57
2018-11-11T23:00:59.751Z,1.30
2018-11-11T23:03:28.236Z,1.70
2018-11-11T23:05:56.762Z,0.57
2018-11-11T23:08:25.197Z,1.60
2018-11-11T23:10:53.755Z,1.10
2018-11-11T23:13:22.284Z,0.60
2018-11-11T23:15:50.695Z,1.52
2018-11-11T23:18:19.220Z,1.57
2018-11-11T23:20:47.746Z,1.10
2018-11-11T23:23:16.207Z,1.35
2018-11-11T23:25:44.659Z,2.40
2018-11-11T23:28:13.058Z,0.82
2018-11-11T23:30:41.548Z,0.75
2018-11-11T23:33:10.129Z,0.57
2018-11-11T23:35:38.634Z,1.12
2018-11-11T23:38:08.020Z,1.45
2018-11-11T23:40:37.153Z,0.50
2018-11-11T23:43:05.792Z,1.80
2018-11-11T23:45:34.185Z,1.67
2018-11-11T23:48:02.921Z,0.82
2018-11-11T23:50:31.941Z,1.25
2018-11-11T23:53:00.368Z,0.80
2018-11-11T23:55:28.913Z,1.70
2018-11-11T23:57:57.300Z,1.40
